Time;durP1;ratioP1;P1;durP2;ratioP2;P2;SDS_P1;SDS_P2;PMS_P1;PMS_P2;Temp;Humidity;BMP_temperature;BMP_pressure;BME280_temperature;BME280_humidity;BME280_pressure;Samples;Min_cycle;Max_cycle;Signal;HPM_P1;HPM_P2
2023/08/03 00:00:11;;;;;;;;;;;;;;;20.21;55.51;95642.72;4920006;28;20088;-79
2023/08/03 00:02:37;;;;;;;;;;;;;;;20.07;55.46;95628.44;4940993;28;20082;-79
2023/08/03 00:05:02;;;;;;;;;;;;;;;20.37;55.50;95632.13;4909883;28;20608;-78
2023/08/03 00:07:28;;;;;;;;;;;;;;;20.43;55.56;95639.78;4922905;28;20175;-78
2023/08/03 00:09:53;;;;;;;;;;;;;;;20.43;55.54;95634.50;4902649;28;20502;-79
2023/08/03 00:12:18;;;;;;;;;;;;;;;20.21;56.98;95641.97;4942980;28;20102;-79
2023/08/03 00:14:43;;;;;;;;;;;;;;;20.07;58.75;95644.31;4949052;28;20147;-78
2023/08/03 00:17:09;;;;;;;;;;;;;;;20.31;56.68;95643.31;4939861;28;20473;-79
2023/08/03 00:19:34;;;;;;;;;;;;;;;20.45;57.17;95648.16;4911187;28;19963;-78
2023/08/03 00:21:59;;;;;;;;;;;;;;;20.48;56.87;95647.47;4932380;28;20607;-79
2023/08/03 00:24:25;;;;;;;;;;;;;;;20.14;56.65;95644.47;4948648;28;20116;-79
2023/08/03 00:26:50;;;;;;;;;;;;;;;20.52;56.91;95653.56;4945282;28;20067;-79
2023/08/03 00:29:15;;;;;;;;;;;;;;;20.25;57.26;95653.38;4927583;28;20073;-79
2023/08/03 00:31:40;;;;;;;;;;;;;;;20.31;57.47;95659.19;4946941;28;20099;-80
2023/08/03 00:34:06;;;;;;;;;;;;;;;20.23;59.78;95657.47;4923894;28;20037;-80
2023/08/03 00:36:31;;;;;;;;;;;;;;;20.04;60.24;95661.59;4932039;28;20126;-80
2023/08/03 00:38:56;;;;;;;;;;;;;;;19.62;60.71;95654.16;4925864;28;20090;-81
2023/08/03 00:41:21;;;;;;;;;;;;;;;19.91;61.93;95658.28;4947440;28;20075;-79
2023/08/03 00:43:47;;;;;;;;;;;;;;;19.86;61.26;95634.78;4928135;28;20133;-78
2023/08/03 00:46:12;;;;;;;;;;;;;;;19.92;60.36;95643.97;4923730;28;20201;-81
2023/08/03 00:48:37;;;;;;;;;;;;;;;19.86;59.66;95655.91;4930058;28;20128;-78
2023/08/03 00:51:03;;;;;;;;;;;;;;;19.71;60.33;95652.13;4914214;28;20067;-79
2023/08/03 00:53:29;;;;;;;;;;;;;;;19.92;60.76;95651.88;4926580;28;20100;-79
2023/08/03 00:55:54;;;;;;;;;;;;;;;19.51;60.83;95656.53;4930359;28;20147;-79
2023/08/03 00:58:19;;;;;;;;;;;;;;;19.76;61.72;95651.91;4934196;28;20166;-79
2023/08/03 01:00:45;;;;;;;;;;;;;;;19.64;62.18;95665.91;4947974;23;20100;-77
2023/08/03 01:03:10;;;;;;;;;;;;;;;19.93;61.73;95682.50;4945050;28;20162;-78
2023/08/03 01:05:35;;;;;;;;;;;;;;;19.80;63.50;95683.66;4954438;28;20211;-78
2023/08/03 01:08:00;;;;;;;;;;;;;;;19.76;63.52;95680.19;4932457;28;20088;-79
2023/08/03 01:10:27;;;;;;;;;;;;;;;19.63;64.24;95703.97;4920784;28;20051;-79
2023/08/03 01:12:52;;;;;;;;;;;;;;;19.49;63.79;95687.78;4914057;28;20540;-78
2023/08/03 01:15:17;;;;;;;;;;;;;;;19.05;64.46;95691.16;4947427;28;20209;-78
2023/08/03 01:17:43;;;;;;;;;;;;;;;19.41;64.34;95699.25;4930230;28;20094;-79
2023/08/03 01:20:08;;;;;;;;;;;;;;;19.38;64.49;95699.94;4935796;28;20071;-79
2023/08/03 01:22:40;;;;;;;;;;;;;;;19.25;63.93;95691.31;4929966;28;20092;-80
2023/08/03 01:25:06;;;;;;;;;;;;;;;18.93;65.32;95695.72;4910663;28;20139;-78
2023/08/03 01:27:31;;;;;;;;;;;;;;;19.24;63.18;95706.38;4930593;28;20126;-80
2023/08/03 01:29:56;;;;;;;;;;;;;;;19.36;63.24;95702.91;4925955;28;20053;-79
2023/08/03 01:32:21;;;;;;;;;;;;;;;19.49;61.87;95700.97;4933660;28;20237;-78
2023/08/03 01:34:47;;;;;;;;;;;;;;;19.49;62.82;95705.50;4949042;28;20075;-77
2023/08/03 01:37:12;;;;;;;;;;;;;;;19.56;61.29;95706.44;4929860;28;20478;-79
2023/08/03 01:39:37;;;;;;;;;;;;;;;19.51;61.78;95698.00;4923490;28;20135;-78
2023/08/03 01:42:03;;;;;;;;;;;;;;;19.43;61.65;95704.97;4928217;28;19967;-77
2023/08/03 01:44:28;;;;;;;;;;;;;;;19.46;61.21;95697.13;4916470;28;20442;-78
2023/08/03 01:46:55;;;;;;;;;;;;;;;19.23;62.43;95696.91;4911367;28;20603;-78
2023/08/03 01:49:20;;;;;;;;;;;;;;;19.37;60.82;95707.09;4929068;28;20081;-78
2023/08/03 01:51:46;;;;;;;;;;;;;;;19.23;62.29;95707.47;4912617;28;20080;-80
2023/08/03 01:54:11;;;;;;;;;;;;;;;19.52;62.29;95710.88;4929678;28;20087;-79
2023/08/03 01:56:37;;;;;;;;;;;;;;;19.36;63.22;95707.41;4928831;28;20017;-78
2023/08/03 01:59:02;;;;;;;;;;;;;;;19.25;63.42;95715.81;4929712;28;20181;-79
2023/08/03 02:01:28;;;;;;;;;;;;;;;18.96;64.54;95716.91;4948041;28;20575;-79
2023/08/03 02:03:53;;;;;;;;;;;;;;;19.11;63.76;95704.09;4928370;28;20082;-78
2023/08/03 02:06:18;;;;;;;;;;;;;;;18.75;65.05;95721.53;4945582;28;20955;-78
2023/08/03 02:08:51;;;;;;;;;;;;;;;18.62;65.63;95718.16;4913711;28;20487;-79
2023/08/03 02:11:17;;;;;;;;;;;;;;;18.75;65.01;95722.31;4928408;28;20040;-80
2023/08/03 02:13:42;;;;;;;;;;;;;;;18.77;64.83;95729.91;4929381;28;20176;-77
2023/08/03 02:16:10;;;;;;;;;;;;;;;18.75;65.29;95724.94;4908693;28;20258;-78
2023/08/03 02:18:35;;;;;;;;;;;;;;;18.68;65.26;95728.16;4950443;28;20164;-78
2023/08/03 02:21:00;;;;;;;;;;;;;;;18.49;66.29;95731.34;4934265;28;20168;-79
2023/08/03 02:23:26;;;;;;;;;;;;;;;18.55;65.63;95731.13;4929379;28;20171;-79
2023/08/03 02:25:51;;;;;;;;;;;;;;;18.41;65.83;95744.66;4911419;28;20217;-79
2023/08/03 02:28:16;;;;;;;;;;;;;;;18.52;65.62;95735.97;4949169;28;20332;-79
2023/08/03 02:30:42;;;;;;;;;;;;;;;18.50;65.46;95745.28;4915266;28;20099;-79
2023/08/03 02:33:07;;;;;;;;;;;;;;;18.50;65.92;95735.50;4913033;28;20199;-79
2023/08/03 02:35:34;;;;;;;;;;;;;;;18.48;65.87;95739.59;4935755;28;20346;-79
2023/08/03 02:37:59;;;;;;;;;;;;;;;18.74;65.56;95739.22;4950740;28;20236;-79
2023/08/03 02:40:24;;;;;;;;;;;;;;;18.64;65.57;95734.41;4937743;28;20556;-79
2023/08/03 02:42:50;;;;;;;;;;;;;;;18.66;65.87;95740.91;4946879;28;20067;-78
2023/08/03 02:45:15;;;;;;;;;;;;;;;18.67;66.20;95739.03;4929972;28;20243;-78
2023/08/03 02:47:40;;;;;;;;;;;;;;;18.45;66.45;95743.63;4948550;28;20261;-78
2023/08/03 02:50:06;;;;;;;;;;;;;;;18.50;66.71;95738.16;4914080;28;20619;-80
2023/08/03 02:52:31;;;;;;;;;;;;;;;18.40;66.62;95738.59;4914429;28;20621;-78
2023/08/03 02:54:57;;;;;;;;;;;;;;;18.22;66.85;95747.81;4947982;28;20268;-78
2023/08/03 02:57:22;;;;;;;;;;;;;;;18.45;66.31;95741.00;4950635;28;20238;-79
2023/08/03 02:59:47;;;;;;;;;;;;;;;18.34;65.58;95738.03;4927705;28;20087;-79
2023/08/03 03:02:13;;;;;;;;;;;;;;;18.50;65.94;95740.03;4944078;28;20088;-79
2023/08/03 03:04:38;;;;;;;;;;;;;;;18.63;64.68;95749.47;4930068;28;20083;-78
2023/08/03 03:07:04;;;;;;;;;;;;;;;18.43;64.70;95740.56;4917605;28;20091;-77
2023/08/03 03:09:30;;;;;;;;;;;;;;;18.55;65.21;95744.31;4911551;28;20204;-78
2023/08/03 03:11:55;;;;;;;;;;;;;;;18.60;64.50;95744.09;4928703;28;20397;-78
2023/08/03 03:14:24;;;;;;;;;;;;;;;18.69;63.60;95742.84;4907522;28;20214;-78
2023/08/03 03:16:49;;;;;;;;;;;;;;;18.71;64.09;95742.53;4927503;28;20245;-79
2023/08/03 03:19:14;;;;;;;;;;;;;;;18.74;63.52;95751.66;4914693;28;20224;-77
2023/08/03 03:21:40;;;;;;;;;;;;;;;18.52;64.07;95741.25;4925347;28;20293;-77
2023/08/03 03:24:05;;;;;;;;;;;;;;;18.61;64.11;95758.78;4955344;28;20087;-78
2023/08/03 03:26:30;;;;;;;;;;;;;;;18.52;62.97;95751.00;4930114;28;20123;-78
2023/08/03 03:28:56;;;;;;;;;;;;;;;18.72;62.78;95760.66;4934546;28;20085;-80
2023/08/03 03:31:21;;;;;;;;;;;;;;;18.98;62.80;95767.44;4927801;28;19916;-77
2023/08/03 03:33:46;;;;;;;;;;;;;;;18.55;62.82;95762.75;4929726;28;20360;-79
2023/08/03 03:36:12;;;;;;;;;;;;;;;18.92;63.07;95765.38;4932158;28;19950;-78
2023/08/03 03:38:38;;;;;;;;;;;;;;;18.89;62.42;95764.94;4944958;28;20122;-78
2023/08/03 03:41:03;;;;;;;;;;;;;;;18.84;62.49;95775.72;4920416;28;20230;-78
2023/08/03 03:43:28;;;;;;;;;;;;;;;18.88;62.78;95783.72;4955351;28;19959;-79
2023/08/03 03:45:54;;;;;;;;;;;;;;;18.68;63.00;95777.47;4929578;28;20480;-79
2023/08/03 03:48:19;;;;;;;;;;;;;;;18.71;62.57;95779.44;4900955;28;20569;-79
2023/08/03 03:50:44;;;;;;;;;;;;;;;18.77;61.49;95783.38;4915738;28;20160;-78
2023/08/03 03:53:10;;;;;;;;;;;;;;;18.65;62.69;95788.69;4949210;28;20300;-77
2023/08/03 03:55:35;;;;;;;;;;;;;;;19.06;60.80;95798.22;4931573;28;20394;-78
2023/08/03 03:58:02;;;;;;;;;;;;;;;19.04;61.56;95797.78;4951225;28;20424;-79
2023/08/03 04:00:28;;;;;;;;;;;;;;;18.92;61.44;95804.94;4933614;28;20049;-78
2023/08/03 04:02:53;;;;;;;;;;;;;;;18.64;62.23;95800.31;4935608;28;20167;-77
2023/08/03 04:05:18;;;;;;;;;;;;;;;18.52;61.15;95801.06;4933304;28;20118;-78
2023/08/03 04:07:43;;;;;;;;;;;;;;;18.79;61.16;95790.97;4920156;28;20356;-79
2023/08/03 04:10:09;;;;;;;;;;;;;;;18.82;60.74;95806.94;4958361;28;20156;-78
2023/08/03 04:12:34;;;;;;;;;;;;;;;18.96;60.36;95800.56;4916987;28;20453;-78
2023/08/03 04:15:00;;;;;;;;;;;;;;;19.10;60.84;95811.50;4936380;28;19913;-78
2023/08/03 04:17:25;;;;;;;;;;;;;;;19.02;61.36;95807.13;4934036;28;19940;-78
2023/08/03 04:19:51;;;;;;;;;;;;;;;18.93;61.41;95811.75;4913033;28;20353;-77
2023/08/03 04:22:16;;;;;;;;;;;;;;;19.04;61.27;95799.66;4928784;28;20320;-78
2023/08/03 04:24:41;;;;;;;;;;;;;;;19.00;61.20;95806.69;4921682;28;20106;-78
2023/08/03 04:27:07;;;;;;;;;;;;;;;18.98;62.19;95822.09;4949836;28;20422;-78
2023/08/03 04:29:32;;;;;;;;;;;;;;;18.70;64.00;95822.72;4934460;28;20257;-78
2023/08/03 04:31:57;;;;;;;;;;;;;;;18.48;66.09;95827.31;4956208;28;20169;-77
2023/08/03 04:34:23;;;;;;;;;;;;;;;18.51;66.44;95831.94;4933791;28;20493;-78
2023/08/03 04:36:48;;;;;;;;;;;;;;;18.40;66.49;95836.09;4939099;28;20129;-78
2023/08/03 04:39:14;;;;;;;;;;;;;;;18.22;67.05;95832.13;4946976;28;20261;-77
2023/08/03 04:41:39;;;;;;;;;;;;;;;18.20;68.22;95836.94;4936029;28;20403;-78
2023/08/03 04:44:04;;;;;;;;;;;;;;;18.41;67.75;95839.53;4945089;28;20301;-78
2023/08/03 04:46:29;;;;;;;;;;;;;;;18.27;67.87;95850.38;4916852;28;20173;-77
2023/08/03 04:48:55;;;;;;;;;;;;;;;18.30;68.03;95850.47;4948366;28;20296;-79
2023/08/03 04:51:20;;;;;;;;;;;;;;;18.03;69.09;95857.09;4915643;28;20079;-78
2023/08/03 04:53:45;;;;;;;;;;;;;;;18.28;68.93;95865.84;4935117;28;20171;-79
2023/08/03 04:56:11;;;;;;;;;;;;;;;18.27;68.81;95869.56;4934961;28;20300;-80
2023/08/03 04:58:36;;;;;;;;;;;;;;;18.39;68.68;95876.75;4917042;28;20378;-81
2023/08/03 05:01:02;;;;;;;;;;;;;;;18.21;68.96;95870.09;4916528;28;20284;-83
2023/08/03 05:03:27;;;;;;;;;;;;;;;18.18;69.00;95873.38;4912644;28;20096;-80
2023/08/03 05:05:52;;;;;;;;;;;;;;;18.24;68.61;95875.50;4942905;28;19970;-81
2023/08/03 05:08:22;;;;;;;;;;;;;;;18.27;69.54;95872.22;4932823;28;20498;-80
2023/08/03 05:10:47;;;;;;;;;;;;;;;18.16;69.54;95871.06;4949747;28;20048;-80
2023/08/03 05:13:13;;;;;;;;;;;;;;;18.01;69.88;95869.84;4930859;28;20255;-80
2023/08/03 05:15:38;;;;;;;;;;;;;;;18.02;69.38;95865.31;4930316;28;20200;-81
2023/08/03 05:18:04;;;;;;;;;;;;;;;17.78;70.60;95885.16;4948547;28;20351;-81
2023/08/03 05:20:30;;;;;;;;;;;;;;;17.86;70.08;95875.66;4932503;28;20240;-81
2023/08/03 05:22:59;;;;;;;;;;;;;;;17.80;69.79;95875.06;4947233;28;20121;-80
2023/08/03 05:25:24;;;;;;;;;;;;;;;17.79;70.03;95879.59;4930903;28;20281;-81
2023/08/03 05:27:49;;;;;;;;;;;;;;;17.57;70.98;95882.53;4933408;28;20066;-80
2023/08/03 05:30:15;;;;;;;;;;;;;;;17.90;70.28;95871.31;4914675;28;20335;-80
2023/08/03 05:32:40;;;;;;;;;;;;;;;18.04;69.49;95873.66;4948190;28;20292;-80
2023/08/03 05:35:05;;;;;;;;;;;;;;;17.69;69.32;95879.97;4915733;28;20231;-80
2023/08/03 05:37:31;;;;;;;;;;;;;;;17.95;69.22;95881.66;4914948;28;20252;-79
2023/08/03 05:39:56;;;;;;;;;;;;;;;17.85;69.42;95888.03;4946233;28;20279;-79
2023/08/03 05:42:21;;;;;;;;;;;;;;;17.89;69.23;95873.19;4925417;28;20381;-79
2023/08/03 05:44:48;;;;;;;;;;;;;;;17.91;69.26;95886.78;4949588;28;20430;-79
2023/08/03 05:47:15;;;;;;;;;;;;;;;17.92;69.42;95887.56;4929915;28;20258;-81
2023/08/03 05:49:40;;;;;;;;;;;;;;;17.63;69.62;95888.38;4931593;28;20079;-80
2023/08/03 05:52:06;;;;;;;;;;;;;;;18.09;68.65;95889.28;4904568;28;20135;-79
2023/08/03 05:54:31;;;;;;;;;;;;;;;17.83;69.76;95884.97;4932618;28;20122;-80
2023/08/03 05:56:57;;;;;;;;;;;;;;;17.84;69.81;95893.63;4932254;28;20405;-79
2023/08/03 05:59:23;;;;;;;;;;;;;;;17.42;70.07;95889.16;4916422;28;19985;-80
2023/08/03 06:01:49;;;;;;;;;;;;;;;17.76;69.30;95890.00;4931806;28;20086;-80
2023/08/03 06:04:15;;;;;;;;;;;;;;;17.71;69.42;95893.56;4911830;28;19963;-79
2023/08/03 06:06:40;;;;;;;;;;;;;;;17.79;69.23;95905.91;4926747;28;20225;-79
2023/08/03 06:09:05;;;;;;;;;;;;;;;17.73;69.49;95898.53;4898195;28;20034;-81
2023/08/03 06:11:31;;;;;;;;;;;;;;;17.79;68.29;95898.00;4929796;28;20183;-80
2023/08/03 06:13:56;;;;;;;;;;;;;;;17.78;68.24;95909.63;4930033;28;20205;-81
2023/08/03 06:16:23;;;;;;;;;;;;;;;17.81;69.44;95902.97;4946988;28;20067;-78
2023/08/03 06:18:50;;;;;;;;;;;;;;;17.95;67.87;95902.72;4910535;28;20304;-79
2023/08/03 06:21:15;;;;;;;;;;;;;;;17.86;68.82;95904.63;4928949;28;20093;-79
2023/08/03 06:23:43;;;;;;;;;;;;;;;17.72;68.92;95915.44;4929260;28;21249;-79
2023/08/03 06:26:11;;;;;;;;;;;;;;;17.75;68.67;95918.19;4930738;28;19913;-80
2023/08/03 06:28:36;;;;;;;;;;;;;;;17.99;68.00;95916.78;4927730;28;19975;-80
2023/08/03 06:31:04;;;;;;;;;;;;;;;18.07;68.67;95926.47;4930212;28;19931;-79
2023/08/03 06:33:30;;;;;;;;;;;;;;;17.95;68.60;95918.53;4927727;28;19913;-78
2023/08/03 06:35:57;;;;;;;;;;;;;;;17.81;68.88;95912.72;4918702;28;19913;-80
2023/08/03 06:38:23;;;;;;;;;;;;;;;17.79;68.68;95913.03;4937269;28;19913;-80
2023/08/03 06:40:48;;;;;;;;;;;;;;;17.84;68.74;95927.84;4935362;28;20489;-79
2023/08/03 06:43:14;;;;;;;;;;;;;;;18.03;68.66;95936.13;4936283;28;19913;-80
2023/08/03 06:45:42;;;;;;;;;;;;;;;17.84;68.79;95927.84;4934361;28;20004;-78
2023/08/03 06:48:08;;;;;;;;;;;;;;;17.93;67.92;95939.91;4933901;28;20067;-81
2023/08/03 06:50:33;;;;;;;;;;;;;;;18.00;68.55;95939.38;4914432;28;20243;-80
2023/08/03 06:52:59;;;;;;;;;;;;;;;18.09;68.40;95947.22;4931857;28;19995;-80
2023/08/03 06:55:25;;;;;;;;;;;;;;;18.20;68.48;95950.22;4916911;28;20308;-79
2023/08/03 06:57:50;;;;;;;;;;;;;;;18.02;69.20;95950.38;4921488;28;20355;-80
2023/08/03 07:00:16;;;;;;;;;;;;;;;18.19;69.16;95961.88;4955561;28;19917;-80
2023/08/03 07:02:42;;;;;;;;;;;;;;;18.17;68.66;95956.16;4946389;28;19943;-81
2023/08/03 07:05:07;;;;;;;;;;;;;;;18.13;68.70;95956.03;4925548;28;20281;-80
2023/08/03 07:07:33;;;;;;;;;;;;;;;18.01;69.45;95959.38;4924973;28;20286;-80
2023/08/03 07:10:01;;;;;;;;;;;;;;;18.18;69.03;95961.09;4926852;28;19913;-80
2023/08/03 07:12:29;;;;;;;;;;;;;;;18.03;70.18;95962.47;4925538;28;19913;-80
2023/08/03 07:14:55;;;;;;;;;;;;;;;18.07;68.80;95973.13;4945239;28;20106;-81
2023/08/03 07:17:20;;;;;;;;;;;;;;;18.11;69.08;95971.38;4938978;28;20280;-80
2023/08/03 07:19:50;;;;;;;;;;;;;;;18.20;69.48;95979.19;4911596;28;20291;-80
2023/08/03 07:22:16;;;;;;;;;;;;;;;18.21;68.67;95978.88;4938288;28;20191;-80
2023/08/03 07:24:42;;;;;;;;;;;;;;;18.29;68.30;95985.94;4953108;28;20298;-80
2023/08/03 07:27:07;;;;;;;;;;;;;;;18.02;68.78;95986.47;4932271;28;20405;-80
2023/08/03 07:29:34;;;;;;;;;;;;;;;18.02;68.32;95987.25;4912907;28;20240;-80
2023/08/03 07:32:00;;;;;;;;;;;;;;;18.05;68.77;95991.88;4923970;28;20116;-81
2023/08/03 07:34:25;;;;;;;;;;;;;;;18.26;67.86;95986.59;4935302;28;20250;-80
2023/08/03 07:36:52;;;;;;;;;;;;;;;18.04;69.61;95990.31;4912900;28;20087;-80
2023/08/03 07:39:17;;;;;;;;;;;;;;;18.17;69.07;95993.81;4935883;28;20178;-80
2023/08/03 07:41:43;;;;;;;;;;;;;;;17.98;69.28;95994.25;4943490;28;20401;-80
2023/08/03 07:46:39;;;;;;;;;;;;;;;18.10;68.91;95996.94;4950334;28;20112;-79
2023/08/03 07:49:04;;;;;;;;;;;;;;;18.24;68.62;95998.56;4937298;28;20203;-79
2023/08/03 07:51:29;;;;;;;;;;;;;;;18.27;68.59;96008.47;5012406;22;20027;-79
2023/08/03 07:53:55;;;;;;;;;;;;;;;18.28;68.82;96013.41;4959159;28;19917;-79
2023/08/03 07:56:21;;;;;;;;;;;;;;;18.39;68.74;96011.13;4931673;28;20026;-80
2023/08/03 07:58:47;;;;;;;;;;;;;;;18.32;68.90;96014.28;4926763;28;20257;-80
2023/08/03 08:01:12;;;;;;;;;;;;;;;18.22;69.69;96011.28;4935695;28;20130;-80
2023/08/03 08:03:38;;;;;;;;;;;;;;;18.24;69.25;96014.38;4895066;28;20297;-80
2023/08/03 08:06:07;;;;;;;;;;;;;;;18.19;70.30;96011.94;4996720;22;19978;-80
2023/08/03 08:08:32;;;;;;;;;;;;;;;18.32;69.67;96010.91;4926162;28;20076;-80
2023/08/03 08:10:58;;;;;;;;;;;;;;;18.37;69.25;96008.06;4945161;28;20133;-80
2023/08/03 08:13:23;;;;;;;;;;;;;;;18.39;69.94;96020.91;5443881;22;20411;-80
2023/08/03 08:15:49;;;;;;;;;;;;;;;18.27;70.07;96019.00;4979164;23;20070;-79
2023/08/03 08:18:14;;;;;;;;;;;;;;;18.23;69.55;96021.50;4935854;28;20376;-80
2023/08/03 08:20:39;;;;;;;;;;;;;;;18.26;69.42;96033.25;4918574;28;20409;-80
2023/08/03 08:23:05;;;;;;;;;;;;;;;18.39;69.24;96032.22;4927558;28;20231;-79
2023/08/03 08:25:33;;;;;;;;;;;;;;;18.21;69.88;96028.94;4936225;28;20350;-80
2023/08/03 08:27:59;;;;;;;;;;;;;;;18.29;69.71;96033.38;4915222;28;20105;-79
2023/08/03 08:30:24;;;;;;;;;;;;;;;18.40;69.80;96038.25;4921502;28;20718;-82
2023/08/03 08:32:50;;;;;;;;;;;;;;;18.28;69.14;96031.84;4922832;28;19990;-80
2023/08/03 08:35:15;;;;;;;;;;;;;;;18.44;68.73;96026.75;4919098;28;20188;-79
2023/08/03 08:37:40;;;;;;;;;;;;;;;18.22;69.78;96027.84;4937067;28;19917;-79
2023/08/03 08:40:10;;;;;;;;;;;;;;;18.36;69.28;96027.59;4919761;28;20130;-80
2023/08/03 08:42:35;;;;;;;;;;;;;;;18.13;69.56;96025.28;4938365;28;20075;-80
2023/08/03 08:45:01;;;;;;;;;;;;;;;18.59;68.49;96032.50;4946551;28;20153;-79
2023/08/03 08:47:26;;;;;;;;;;;;;;;18.51;69.15;96040.19;5015240;22;20196;-80
2023/08/03 08:49:51;;;;;;;;;;;;;;;18.48;69.10;96037.41;4899959;28;20149;-79
2023/08/03 08:52:17;;;;;;;;;;;;;;;18.63;68.01;96036.06;4921116;28;20271;-80
2023/08/03 08:54:42;;;;;;;;;;;;;;;18.62;68.35;96043.19;4918306;28;20301;-80
2023/08/03 08:57:08;;;;;;;;;;;;;;;18.66;68.61;96038.03;4938332;28;20092;-80
2023/08/03 08:59:33;;;;;;;;;;;;;;;18.67;67.70;96034.31;4917852;28;20387;-79
2023/08/03 09:02:01;;;;;;;;;;;;;;;18.61;68.88;96044.28;4907225;28;20199;-79
2023/08/03 09:04:27;;;;;;;;;;;;;;;18.38;69.62;96046.47;4896225;28;20216;-80
2023/08/03 09:06:53;;;;;;;;;;;;;;;18.51;70.80;96053.34;4899187;28;20334;-81
2023/08/03 09:09:25;;;;;;;;;;;;;;;18.48;70.04;96053.25;4919019;28;20219;-80
2023/08/03 09:11:50;;;;;;;;;;;;;;;18.67;69.60;96047.50;4898281;28;20018;-80
2023/08/03 09:14:16;;;;;;;;;;;;;;;18.76;69.26;96053.44;4921308;28;19980;-80
2023/08/03 09:16:42;;;;;;;;;;;;;;;18.51;70.16;96050.72;4967022;23;20294;-80
2023/08/03 09:19:08;;;;;;;;;;;;;;;18.61;68.65;96057.47;4941059;28;20259;-80
2023/08/03 09:21:33;;;;;;;;;;;;;;;18.69;69.90;96050.56;4938094;28;20275;-79
2023/08/03 09:24:02;;;;;;;;;;;;;;;18.70;68.95;96073.22;4935805;28;20044;-80
2023/08/03 09:26:28;;;;;;;;;;;;;;;18.71;69.84;96072.09;4936370;28;20176;-79
2023/08/03 09:28:53;;;;;;;;;;;;;;;18.70;71.02;96067.94;4950235;28;20365;-79
2023/08/03 09:31:23;;;;;;;;;;;;;;;18.84;70.69;96088.78;4922745;28;20312;-81
2023/08/03 09:33:56;;;;;;;;;;;;;;;19.13;70.05;96095.81;4939296;28;19920;-81
2023/08/03 09:36:21;;;;;;;;;;;;;;;19.01;70.30;96093.91;4920885;28;20125;-79
2023/08/03 09:38:47;;;;;;;;;;;;;;;18.74;69.50;96084.66;4908885;28;20253;-80
2023/08/03 09:41:12;;;;;;;;;;;;;;;19.14;70.12;96100.00;4943209;28;20370;-80
2023/08/03 09:43:41;;;;;;;;;;;;;;;19.15;70.45;96100.75;4957205;28;20001;-80
2023/08/03 09:46:06;;;;;;;;;;;;;;;19.25;69.94;96098.47;4939467;28;20075;-79
2023/08/03 09:48:31;;;;;;;;;;;;;;;19.11;70.17;96107.75;4985290;23;20217;-79
2023/08/03 09:50:58;;;;;;;;;;;;;;;19.16;69.29;96110.19;4947070;28;19916;-79
2023/08/03 09:53:24;;;;;;;;;;;;;;;18.98;70.01;96114.88;4941108;28;20032;-81
2023/08/03 09:55:58;;;;;;;;;;;;;;;19.07;70.89;96124.25;4943801;28;20180;-80
2023/08/03 09:58:28;;;;;;;;;;;;;;;19.27;69.26;96130.56;4965041;28;20261;-80
2023/08/03 10:00:53;;;;;;;;;;;;;;;19.18;70.54;96126.50;4977798;28;20119;-81
2023/08/03 10:03:18;;;;;;;;;;;;;;;18.95;70.88;96129.47;4950156;28;20118;-79
2023/08/03 10:06:07;;;;;;;;;;;;;;;19.37;69.41;96133.91;4945141;28;20130;-79
2023/08/03 10:08:38;;;;;;;;;;;;;;;19.31;70.63;96132.56;4959733;28;20089;-78
2023/08/03 10:11:05;;;;;;;;;;;;;;;19.57;70.45;96127.00;4973520;28;20306;-80
2023/08/03 10:13:33;;;;;;;;;;;;;;;19.73;68.37;96135.84;4953059;28;20097;-79
2023/08/03 10:16:02;;;;;;;;;;;;;;;19.64;69.13;96128.00;4954047;28;20320;-79
2023/08/03 10:18:28;;;;;;;;;;;;;;;19.67;68.97;96141.66;4931826;28;19935;-78
2023/08/03 10:20:53;;;;;;;;;;;;;;;19.65;68.34;96136.69;4948692;28;20086;-77
2023/08/03 10:23:19;;;;;;;;;;;;;;;19.64;69.38;96140.44;4935608;28;20295;-80
2023/08/03 10:25:55;;;;;;;;;;;;;;;19.74;68.43;96153.25;4936623;28;19990;-79
2023/08/03 10:28:21;;;;;;;;;;;;;;;19.78;68.21;96150.72;4950767;28;20181;-78
2023/08/03 10:31:05;;;;;;;;;;;;;;;19.46;67.88;96156.47;4950054;28;20455;-80
2023/08/03 10:33:45;;;;;;;;;;;;;;;19.50;69.40;96151.31;4957465;28;20287;-80
2023/08/03 10:36:33;;;;;;;;;;;;;;;19.44;69.41;96153.38;4949586;28;20262;-78
2023/08/03 10:38:58;;;;;;;;;;;;;;;19.65;69.25;96163.09;4960096;28;19920;-78
2023/08/03 10:41:28;;;;;;;;;;;;;;;19.94;69.15;96159.53;4981211;28;20124;-78
2023/08/03 10:44:05;;;;;;;;;;;;;;;19.88;68.86;96149.50;4948838;28;20173;-79
2023/08/03 10:46:50;;;;;;;;;;;;;;;20.10;67.61;96145.66;4964957;28;20288;-78
2023/08/03 10:49:18;;;;;;;;;;;;;;;20.30;69.07;96170.44;4973537;28;20235;-79
2023/08/03 10:52:04;;;;;;;;;;;;;;;20.27;67.26;96157.88;4988021;28;20154;-80
2023/08/03 10:54:30;;;;;;;;;;;;;;;20.27;67.73;96171.88;4958940;28;20094;-79
2023/08/03 10:57:04;;;;;;;;;;;;;;;19.97;69.02;96173.97;4959336;28;20097;-78
2023/08/03 10:59:29;;;;;;;;;;;;;;;20.29;70.81;96180.25;4947314;28;20099;-80
2023/08/03 11:01:55;;;;;;;;;;;;;;;20.48;69.66;96181.56;4964025;28;20083;-78
2023/08/03 11:04:25;;;;;;;;;;;;;;;20.37;68.45;96176.72;4937721;28;20554;-78
2023/08/03 11:06:51;;;;;;;;;;;;;;;20.35;66.95;96184.19;4951927;28;20211;-78
2023/08/03 11:09:16;;;;;;;;;;;;;;;20.15;67.93;96180.59;4941906;28;20276;-78
2023/08/03 11:11:44;;;;;;;;;;;;;;;20.23;68.36;96181.56;4953772;28;20420;-79
2023/08/03 11:14:09;;;;;;;;;;;;;;;20.38;67.71;96188.81;4946595;28;20241;-79
2023/08/03 11:16:35;;;;;;;;;;;;;;;20.11;68.39;96179.69;4963069;28;20384;-80
2023/08/03 11:19:01;;;;;;;;;;;;;;;20.22;67.65;96190.59;4948716;28;20261;-78
2023/08/03 11:21:26;;;;;;;;;;;;;;;20.19;68.37;96185.97;4949286;28;20040;-78
2023/08/03 11:23:51;;;;;;;;;;;;;;;20.23;68.76;96196.66;4949642;28;20324;-78
2023/08/03 11:26:17;;;;;;;;;;;;;;;20.25;70.60;96189.16;4935338;28;20237;-77
2023/08/03 11:28:42;;;;;;;;;;;;;;;20.29;68.24;96197.97;4927970;28;20476;-79
2023/08/03 11:31:17;;;;;;;;;;;;;;;20.35;68.02;96205.34;4937592;28;20417;-77
2023/08/03 11:33:49;;;;;;;;;;;;;;;20.58;69.45;96187.16;4949684;28;20303;-78
2023/08/03 11:36:18;;;;;;;;;;;;;;;20.65;69.38;96197.19;4967427;28;20292;-79
2023/08/03 11:38:44;;;;;;;;;;;;;;;21.14;68.57;96197.03;4963524;28;20197;-79
2023/08/03 11:41:13;;;;;;;;;;;;;;;21.21;66.79;96190.41;4951360;28;20405;-77
2023/08/03 11:43:38;;;;;;;;;;;;;;;21.01;65.21;96198.22;4943690;28;19990;-78
2023/08/03 11:46:04;;;;;;;;;;;;;;;21.01;64.40;96200.06;4944577;28;20406;-78
2023/08/03 11:48:30;;;;;;;;;;;;;;;20.79;63.80;96201.38;4935312;28;20503;-78
2023/08/03 11:50:55;;;;;;;;;;;;;;;20.91;64.64;96202.09;4968545;28;20121;-78
2023/08/03 11:53:26;;;;;;;;;;;;;;;20.69;65.52;96208.66;4935501;28;20112;-78
2023/08/03 11:55:51;;;;;;;;;;;;;;;20.38;67.75;96212.63;4967849;28;20161;-77
2023/08/03 11:58:17;;;;;;;;;;;;;;;20.33;69.25;96212.06;4966621;28;20275;-80
2023/08/03 12:00:43;;;;;;;;;;;;;;;20.07;68.63;96222.97;4933667;28;20070;-79
2023/08/03 12:03:08;;;;;;;;;;;;;;;20.14;68.24;96215.28;4952673;28;20114;-79
2023/08/03 12:05:52;;;;;;;;;;;;;;;20.45;66.57;96227.94;4929021;28;20284;-79
2023/08/03 12:08:20;;;;;;;;;;;;;;;20.09;67.23;96212.84;4937920;28;20288;-78
2023/08/03 12:10:59;;;;;;;;;;;;;;;20.30;67.48;96228.59;4955289;28;20122;-78
2023/08/03 12:13:24;;;;;;;;;;;;;;;19.84;68.11;96218.06;4949935;28;20280;-79
2023/08/03 12:15:50;;;;;;;;;;;;;;;19.60;70.85;96218.78;4963001;28;20085;-79
2023/08/03 12:18:15;;;;;;;;;;;;;;;19.53;70.74;96229.09;4954740;28;20102;-79
2023/08/03 12:20:41;;;;;;;;;;;;;;;20.01;70.09;96227.69;4956825;28;20201;-78
2023/08/03 12:23:06;;;;;;;;;;;;;;;20.14;69.45;96209.97;4936729;28;20052;-78
2023/08/03 12:25:31;;;;;;;;;;;;;;;20.09;69.13;96233.97;4937969;28;20129;-78
2023/08/03 12:27:57;;;;;;;;;;;;;;;20.09;69.36;96233.97;4933971;28;20291;-78
2023/08/03 12:30:22;;;;;;;;;;;;;;;19.70;69.81;96228.16;4954125;28;19912;-78
2023/08/03 12:32:48;;;;;;;;;;;;;;;20.13;69.10;96237.50;4970649;28;19952;-79
2023/08/03 12:35:13;;;;;;;;;;;;;;;20.06;69.62;96230.13;4936907;28;20374;-78
2023/08/03 12:37:38;;;;;;;;;;;;;;;20.26;69.95;96240.94;4953317;28;20349;-78
2023/08/03 12:40:04;;;;;;;;;;;;;;;20.19;69.74;96242.25;4951709;28;20484;-78
2023/08/03 12:42:30;;;;;;;;;;;;;;;20.30;68.80;96245.22;4971624;28;20246;-78
2023/08/03 12:44:55;;;;;;;;;;;;;;;20.55;69.02;96245.22;4950198;28;20052;-79